EmailTwitter


Observations de surface / États-Unis / KJFK (74486)

Régions: Québec | Canada | États-Unis | Europe | France | UK | Ailleurs
Station
Affichage
Infos & localisation pour KJFK (74486) | Aide pour décoder les METARs

Observations prises le 2017-10-23 à 23H51 UTC à NEW YORK/JF KENN, NY (KJFK)

Etat du ciel: partiellement nuageux.

Température: 16.1 Celsius

Point de rosée: 15.0 Celsius

Humidité relative: 93%

Indice Humidex: 20.

Vents: Sud-est à 7 km/h ou 4 noeuds.

Pression au niveau moyen de la mer: 102.86 kilopascals.

Calage altimétrique: 102.88 kilopascals ou 30.38 pouces de mercure.

Visibilité horizontale: 10.00 milles terrestres ou 16.00 kilomètres.

Hauteur du plafond: 7620 mètres ( 25000 pieds ).

Observation METAR:

KJFK 222351Z 14004KT 10SM BKN250 16/15 A3038 RMK AO2 SLP286 T01610150 10217

20156 55000=